createdAt,value
2023-01-28T00:00:52.093Z,5.80
2023-01-28T00:03:18.984Z,6.10
2023-01-28T00:05:45.756Z,5.25
2023-01-28T00:08:14.873Z,5.70
2023-01-28T00:10:43.671Z,5.82
2023-01-28T00:13:14.784Z,5.93
2023-01-28T00:15:41.825Z,5.28
2023-01-28T00:18:08.807Z,6.07
2023-01-28T00:20:35.590Z,5.13
2023-01-28T00:23:02.459Z,6.70
2023-01-28T00:25:29.217Z,5.93
2023-01-28T00:27:55.922Z,5.80
2023-01-28T00:30:23.482Z,5.53
2023-01-28T00:32:50.197Z,6.20
2023-01-28T00:35:18.986Z,7.80
2023-01-28T00:37:47.318Z,7.65
2023-01-28T00:40:14.535Z,7.20
2023-01-28T00:42:41.301Z,6.70
2023-01-28T00:45:08.720Z,6.53
2023-01-28T00:47:35.618Z,6.25
2023-01-28T00:50:02.781Z,5.57
2023-01-28T00:52:31.455Z,5.97
2023-01-28T00:54:58.050Z,5.82
2023-01-28T00:57:26.050Z,5.32
2023-01-28T00:59:52.749Z,5.10
2023-01-28T01:02:19.408Z,5.80
2023-01-28T01:04:55.058Z,5.82
2023-01-28T01:07:32.381Z,6.22
2023-01-28T01:10:01.053Z,5.38
2023-01-28T01:12:28.383Z,5.20
2023-01-28T01:14:56.263Z,6.45
2023-01-28T01:17:23.448Z,6.57
2023-01-28T01:19:50.157Z,6.30
2023-01-28T01:22:16.795Z,7.10
2023-01-28T01:24:43.588Z,5.85
2023-01-28T01:27:10.240Z,5.75
2023-01-28T01:29:37.037Z,5.88
2023-01-28T01:32:03.907Z,6.28
2023-01-28T01:34:30.622Z,5.63
2023-01-28T01:36:58.040Z,6.35
2023-01-28T01:39:25.687Z,5.82
2023-01-28T01:41:52.335Z,5.70
2023-01-28T01:44:52.537Z,5.53
2023-01-28T01:47:19.635Z,5.00
2023-01-28T01:49:46.524Z,5.90
2023-01-28T01:52:23.275Z,4.90
2023-01-28T01:54:53.041Z,4.88
2023-01-28T01:57:23.951Z,5.35
2023-01-28T01:59:50.711Z,5.55
2023-01-28T02:02:17.685Z,5.10
2023-01-28T02:04:44.945Z,4.82
2023-01-28T02:07:17.093Z,4.85
2023-01-28T02:09:43.916Z,4.90
2023-01-28T02:12:24.842Z,5.10
2023-01-28T02:15:04.359Z,5.15
2023-01-28T02:17:31.261Z,5.03
2023-01-28T02:20:02.933Z,4.75
2023-01-28T02:22:35.522Z,4.63
2023-01-28T02:25:27.749Z,5.05
2023-01-28T02:28:09.712Z,4.93
2023-01-28T02:30:40.497Z,5.72
2023-01-28T02:33:51.779Z,5.25
2023-01-28T02:36:29.593Z,5.05
2023-01-28T02:38:59.682Z,5.32
2023-01-28T02:41:32.983Z,5.00
2023-01-28T02:44:02.589Z,5.35
2023-01-28T02:46:47.831Z,4.97
2023-01-28T02:49:18.357Z,5.22
2023-01-28T02:51:51.003Z,5.10
2023-01-28T02:54:31.155Z,5.22
2023-01-28T02:57:06.164Z,5.18
2023-01-28T02:59:51.639Z,5.20
2023-01-28T03:02:34.081Z,5.57
2023-01-28T03:05:11.223Z,5.40
2023-01-28T03:07:38.838Z,5.55
2023-01-28T03:10:10.184Z,6.03
2023-01-28T03:12:58.939Z,5.47
2023-01-28T03:16:00.288Z,5.85
2023-01-28T03:18:58.537Z,6.30
2023-01-28T03:22:08.054Z,6.40
2023-01-28T03:25:08.000Z,6.50
2023-01-28T03:28:03.377Z,5.85
2023-01-28T03:31:00.736Z,5.53
2023-01-28T03:33:55.726Z,5.55
2023-01-28T03:36:43.474Z,5.22
2023-01-28T03:39:22.235Z,6.18
2023-01-28T03:41:59.676Z,6.60
2023-01-28T03:44:45.575Z,6.32
2023-01-28T03:47:12.728Z,5.93
2023-01-28T03:49:45.556Z,6.30
2023-01-28T03:52:13.434Z,7.25
2023-01-28T03:54:40.110Z,6.30
2023-01-28T03:57:06.964Z,6.80
2023-01-28T03:59:34.162Z,6.70
2023-01-28T04:02:03.375Z,6.68
2023-01-28T04:04:32.606Z,6.13
2023-01-28T04:06:59.709Z,6.57
2023-01-28T04:09:55.596Z,6.93
2023-01-28T04:12:34.385Z,7.43
2023-01-28T04:15:01.465Z,6.72
2023-01-28T04:17:30.670Z,6.85
2023-01-28T04:19:57.800Z,7.05
2023-01-28T04:22:25.308Z,7.95
2023-01-28T04:24:52.000Z,6.75
2023-01-28T04:27:19.085Z,6.65
2023-01-28T04:29:47.888Z,7.78
2023-01-28T04:32:34.743Z,7.07
2023-01-28T04:35:19.909Z,6.75
2023-01-28T04:38:15.855Z,6.68
2023-01-28T04:40:58.325Z,6.70
2023-01-28T04:43:31.341Z,8.05
2023-01-28T04:46:24.128Z,8.35
2023-01-28T04:49:09.220Z,6.90
2023-01-28T04:51:38.800Z,6.82
2023-01-28T04:54:24.099Z,7.80
2023-01-28T04:56:52.859Z,7.32
2023-01-28T04:59:19.926Z,6.80
2023-01-28T05:01:46.663Z,6.85
2023-01-28T05:04:14.265Z,7.50
2023-01-28T05:06:40.899Z,7.40
2023-01-28T05:09:12.511Z,7.32
2023-01-28T05:11:40.275Z,6.60
2023-01-28T05:14:08.345Z,7.28
2023-01-28T05:16:45.123Z,6.65
2023-01-28T05:19:12.281Z,6.95
2023-01-28T05:21:41.689Z,7.25
2023-01-28T05:24:21.673Z,6.07
2023-01-28T05:26:48.506Z,7.43
2023-01-28T05:29:15.372Z,6.57
2023-01-28T05:31:42.103Z,7.30
2023-01-28T05:34:09.761Z,7.00
2023-01-28T05:36:37.072Z,6.45
2023-01-28T05:39:14.661Z,7.25
2023-01-28T05:41:41.928Z,8.00
2023-01-28T05:44:08.688Z,6.90
2023-01-28T05:46:55.251Z,6.93
2023-01-28T05:49:40.537Z,6.72
2023-01-28T05:52:25.737Z,7.70
2023-01-28T05:54:53.105Z,7.57
2023-01-28T05:57:19.743Z,6.93
2023-01-28T05:59:46.661Z,7.15
2023-01-28T06:02:13.401Z,6.60
2023-01-28T06:04:42.199Z,6.20
2023-01-28T06:07:13.211Z,6.38
2023-01-28T06:09:39.980Z,6.13
2023-01-28T06:12:08.754Z,6.95
2023-01-28T06:14:46.852Z,5.78
2023-01-28T06:17:36.775Z,6.10
2023-01-28T06:20:09.074Z,5.90
2023-01-28T06:22:38.303Z,6.25
2023-01-28T06:25:05.466Z,6.68
2023-01-28T06:27:33.948Z,6.38
2023-01-28T06:30:00.642Z,5.82
2023-01-28T06:32:27.752Z,6.00
2023-01-28T06:34:54.500Z,6.78
2023-01-28T06:37:21.158Z,6.85
2023-01-28T06:39:47.807Z,6.65
2023-01-28T06:42:14.384Z,6.15
2023-01-28T06:44:41.966Z,6.15
2023-01-28T06:47:09.729Z,5.75
2023-01-28T06:49:37.796Z,6.00
2023-01-28T06:52:04.659Z,6.25
2023-01-28T06:54:31.283Z,6.13
2023-01-28T06:56:59.153Z,5.70
2023-01-28T06:59:25.813Z,6.80
2023-01-28T07:01:52.629Z,6.90
2023-01-28T07:04:19.267Z,6.32
2023-01-28T07:06:46.420Z,6.60
2023-01-28T07:09:13.156Z,6.95
2023-01-28T07:11:39.815Z,6.70
2023-01-28T07:14:06.486Z,7.07
2023-01-28T07:16:35.895Z,6.57
2023-01-28T07:19:02.610Z,7.45
2023-01-28T07:21:29.388Z,6.32
2023-01-28T07:23:56.222Z,5.97
2023-01-28T07:26:23.625Z,6.65
2023-01-28T07:28:50.250Z,7.20
2023-01-28T07:31:17.053Z,6.50
2023-01-28T07:33:43.865Z,6.27
2023-01-28T07:36:10.563Z,5.90
2023-01-28T07:38:37.164Z,6.53
2023-01-28T07:41:03.916Z,6.78
2023-01-28T07:43:30.607Z,6.88
2023-01-28T07:46:00.493Z,6.60
2023-01-28T07:48:27.162Z,6.63
2023-01-28T07:50:53.927Z,6.63
2023-01-28T07:53:20.688Z,6.40
2023-01-28T07:55:47.560Z,6.77
2023-01-28T07:58:20.009Z,6.93
2023-01-28T08:00:46.793Z,5.72
2023-01-28T08:03:15.723Z,5.68
2023-01-28T08:05:46.404Z,5.93
2023-01-28T08:08:13.951Z,5.63
2023-01-28T08:10:41.207Z,5.63
2023-01-28T08:13:07.972Z,6.28
2023-01-28T08:15:35.374Z,6.70
2023-01-28T08:18:03.456Z,6.35
2023-01-28T08:20:30.479Z,6.20
2023-01-28T08:23:14.352Z,6.03
2023-01-28T08:25:41.099Z,6.22
2023-01-28T08:28:08.287Z,5.28
2023-01-28T08:30:35.819Z,5.72
2023-01-28T08:33:02.528Z,6.18
2023-01-28T08:35:29.752Z,5.90
2023-01-28T08:37:59.869Z,6.68
2023-01-28T08:40:26.642Z,5.35
2023-01-28T08:42:54.358Z,5.65
2023-01-28T08:45:22.729Z,5.47
2023-01-28T08:47:57.313Z,5.57
2023-01-28T08:50:26.122Z,6.22
2023-01-28T08:52:57.460Z,6.05
2023-01-28T08:55:25.160Z,5.55
2023-01-28T08:57:51.921Z,6.60
2023-01-28T09:00:19.404Z,5.68
2023-01-28T09:02:46.172Z,5.97
2023-01-28T09:05:13.268Z,6.47
2023-01-28T09:07:40.466Z,5.63
2023-01-28T09:10:07.414Z,5.70
2023-01-28T09:12:34.228Z,6.30
2023-01-28T09:15:00.863Z,6.10
2023-01-28T09:17:27.644Z,5.53
2023-01-28T09:19:54.355Z,5.82
2023-01-28T09:22:21.160Z,5.22
2023-01-28T09:24:47.817Z,5.63
2023-01-28T09:27:14.536Z,5.38
2023-01-28T09:29:41.173Z,5.55
2023-01-28T09:32:07.848Z,5.75
2023-01-28T09:34:34.614Z,4.85
2023-01-28T09:37:01.466Z,5.82
2023-01-28T09:39:30.981Z,5.72
2023-01-28T09:42:19.206Z,6.85
2023-01-28T09:44:57.822Z,6.32
2023-01-28T09:47:29.359Z,5.18
2023-01-28T09:49:58.889Z,5.82
2023-01-28T09:52:26.655Z,6.47
2023-01-28T09:55:00.235Z,6.18
2023-01-28T09:57:31.784Z,6.50
2023-01-28T09:59:58.831Z,5.82
2023-01-28T10:02:33.941Z,6.38
2023-01-28T10:05:22.463Z,6.85
2023-01-28T10:08:15.211Z,6.53
2023-01-28T10:10:44.119Z,7.50
2023-01-28T10:13:29.689Z,6.78
2023-01-28T10:16:34.011Z,7.97
2023-01-28T10:19:07.832Z,7.10
2023-01-28T10:21:42.180Z,7.60
2023-01-28T10:24:18.906Z,7.75
2023-01-28T10:26:46.058Z,9.13
2023-01-28T10:29:20.055Z,7.53
2023-01-28T10:31:54.442Z,7.70
2023-01-28T10:34:22.698Z,7.22
2023-01-28T10:36:49.803Z,7.20
2023-01-28T10:39:18.318Z,7.07
2023-01-28T10:41:56.617Z,6.57
2023-01-28T10:44:32.922Z,7.00
2023-01-28T10:47:04.733Z,7.10
2023-01-28T10:49:31.691Z,7.22
2023-01-28T10:51:58.909Z,7.22
2023-01-28T10:54:29.013Z,7.88
2023-01-28T10:56:58.135Z,7.85
2023-01-28T10:59:31.916Z,7.13
2023-01-28T11:02:04.558Z,6.85
2023-01-28T11:04:36.217Z,7.53
2023-01-28T11:07:20.804Z,7.00
2023-01-28T11:09:51.588Z,6.78
2023-01-28T11:12:27.548Z,6.60
2023-01-28T11:15:05.371Z,7.15
2023-01-28T11:17:37.184Z,7.03
2023-01-28T11:20:13.615Z,6.13
2023-01-28T11:22:42.652Z,6.00
2023-01-28T11:25:18.518Z,6.07
2023-01-28T11:27:49.675Z,7.30
2023-01-28T11:30:22.524Z,6.70
2023-01-28T11:33:17.451Z,7.10
2023-01-28T11:35:53.880Z,7.88
2023-01-28T11:38:23.679Z,7.82
2023-01-28T11:40:54.604Z,6.45
2023-01-28T11:43:23.400Z,7.20
2023-01-28T11:46:05.143Z,6.60
2023-01-28T11:48:51.329Z,6.70
2023-01-28T11:51:24.767Z,7.70
2023-01-28T11:54:04.405Z,7.35
2023-01-28T11:57:05.552Z,7.68
2023-01-28T12:00:03.317Z,7.57
2023-01-28T12:02:35.088Z,7.47
2023-01-28T12:05:35.853Z,7.15
2023-01-28T12:08:24.784Z,7.60
2023-01-28T12:11:07.924Z,8.10
2023-01-28T12:13:49.145Z,8.50
2023-01-28T12:16:54.404Z,8.00
2023-01-28T12:19:39.758Z,8.18
2023-01-28T12:22:29.344Z,8.05
2023-01-28T12:25:01.950Z,8.55
2023-01-28T12:27:40.826Z,6.97
2023-01-28T12:30:32.434Z,8.18
2023-01-28T12:33:28.185Z,8.32
2023-01-28T12:36:19.494Z,8.30
2023-01-28T12:39:11.403Z,9.13
2023-01-28T12:42:15.305Z,9.63
2023-01-28T12:44:51.610Z,9.50
2023-01-28T12:47:32.249Z,8.70
2023-01-28T12:50:25.242Z,9.23
2023-01-28T12:53:19.783Z,9.85
2023-01-28T12:55:59.252Z,9.18
2023-01-28T12:58:45.155Z,9.35
2023-01-28T13:01:16.877Z,9.90
2023-01-28T13:04:06.695Z,10.48
2023-01-28T13:06:48.311Z,9.65
2023-01-28T13:09:21.506Z,9.88
2023-01-28T13:11:53.321Z,8.93
2023-01-28T13:14:23.827Z,8.27
2023-01-28T13:16:50.522Z,8.98
2023-01-28T13:19:22.557Z,9.93
2023-01-28T13:21:50.149Z,10.65
2023-01-28T13:24:16.808Z,9.48
2023-01-28T13:26:44.728Z,9.85
2023-01-28T13:29:16.786Z,8.98
2023-01-28T13:31:52.284Z,11.18
2023-01-28T13:34:40.587Z,9.70
2023-01-28T13:37:27.473Z,10.63
2023-01-28T13:40:03.554Z,10.02
2023-01-28T13:42:31.399Z,11.10
2023-01-28T13:45:16.758Z,9.93
2023-01-28T13:47:47.153Z,11.48
2023-01-28T13:50:21.356Z,10.00
2023-01-28T13:53:05.113Z,10.25
2023-01-28T13:55:44.078Z,10.98
2023-01-28T13:58:25.807Z,9.65
2023-01-28T14:01:16.870Z,10.88
2023-01-28T14:04:11.713Z,11.23
2023-01-28T14:06:44.439Z,9.95
2023-01-28T14:09:21.162Z,9.27
2023-01-28T14:12:17.034Z,10.75
2023-01-28T14:15:12.451Z,11.43
2023-01-28T14:17:48.707Z,9.98
2023-01-28T14:20:27.812Z,11.82
2023-01-28T14:23:04.582Z,11.98
2023-01-28T14:26:02.570Z,11.23
2023-01-28T14:28:36.169Z,11.50
2023-01-28T14:31:11.133Z,10.68
2023-01-28T14:33:38.290Z,11.77
2023-01-28T14:36:05.481Z,12.18
2023-01-28T14:38:38.762Z,13.43
2023-01-28T14:41:06.241Z,17.33
2023-01-28T14:43:34.568Z,12.32
2023-01-28T14:46:30.531Z,11.38
2023-01-28T14:49:22.655Z,10.65
2023-01-28T14:52:22.012Z,11.38
2023-01-28T14:55:26.845Z,13.02
2023-01-28T14:58:03.207Z,12.52
2023-01-28T15:00:32.352Z,14.50
2023-01-28T15:02:59.547Z,13.52
2023-01-28T15:05:35.248Z,13.27
2023-01-28T15:08:03.245Z,13.13
2023-01-28T15:10:38.277Z,13.10
2023-01-28T15:13:12.421Z,13.30
2023-01-28T15:15:47.167Z,11.43
2023-01-28T15:18:21.400Z,14.23
2023-01-28T15:20:50.712Z,13.07
2023-01-28T15:23:20.430Z,13.15
2023-01-28T15:25:47.247Z,13.43
2023-01-28T15:28:24.698Z,13.52
2023-01-28T15:30:51.510Z,14.25
2023-01-28T15:33:21.755Z,14.60
2023-01-28T15:35:50.599Z,14.98
2023-01-28T15:38:18.015Z,13.63
2023-01-28T15:40:50.356Z,16.40
2023-01-28T15:43:20.110Z,16.63
2023-01-28T15:45:51.671Z,16.10
2023-01-28T15:48:18.516Z,17.37
2023-01-28T15:50:45.212Z,15.30
2023-01-28T15:53:14.376Z,15.77
2023-01-28T15:55:44.992Z,15.57
2023-01-28T15:58:30.036Z,15.82
2023-01-28T16:01:04.854Z,16.80
2023-01-28T16:03:33.592Z,16.07
2023-01-28T16:06:08.606Z,15.30
2023-01-28T16:08:47.755Z,14.67
2023-01-28T16:11:25.245Z,15.43
2023-01-28T16:13:52.160Z,16.27
2023-01-28T16:16:28.247Z,14.67
2023-01-28T16:18:56.121Z,14.43
2023-01-28T16:21:26.468Z,16.10
2023-01-28T16:24:04.541Z,13.90
2023-01-28T16:26:34.291Z,16.83
2023-01-28T16:29:20.708Z,16.80
2023-01-28T16:31:47.374Z,16.63
2023-01-28T16:34:14.105Z,18.20
2023-01-28T16:36:40.728Z,17.47
2023-01-28T16:39:07.362Z,17.90
2023-01-28T16:41:40.954Z,17.47
2023-01-28T16:44:08.831Z,17.93
2023-01-28T16:46:35.528Z,19.10
2023-01-28T16:49:02.577Z,19.70
2023-01-28T16:51:29.707Z,17.27
2023-01-28T16:53:57.828Z,19.07
2023-01-28T16:59:14.956Z,18.83
2023-01-28T17:01:43.640Z,18.33
2023-01-28T17:04:12.785Z,18.23
2023-01-28T17:06:44.614Z,19.03
2023-01-28T17:09:13.606Z,18.43
2023-01-28T17:11:41.097Z,18.90
2023-01-28T17:14:08.359Z,18.77
2023-01-28T17:16:35.066Z,19.57
2023-01-28T17:19:01.787Z,19.50
2023-01-28T17:21:28.433Z,18.80
2023-01-28T17:23:55.876Z,17.93
2023-01-28T17:26:23.652Z,18.03
2023-01-28T17:28:53.868Z,17.03
2023-01-28T17:31:22.114Z,19.93
2023-01-28T17:33:53.898Z,20.70
2023-01-28T17:36:20.728Z,21.00
2023-01-28T17:38:48.478Z,19.97
2023-01-28T17:41:17.134Z,19.30
2023-01-28T17:43:44.519Z,16.63
2023-01-28T17:46:19.410Z,20.53
2023-01-28T17:48:46.212Z,19.63
2023-01-28T17:51:13.909Z,21.83
2023-01-28T17:53:40.625Z,20.50
2023-01-28T17:56:20.958Z,21.43
2023-01-28T17:58:52.813Z,21.27
2023-01-28T18:01:20.612Z,20.00
2023-01-28T18:03:47.223Z,20.17
2023-01-28T18:06:13.886Z,21.73
2023-01-28T18:08:40.615Z,23.07
2023-01-28T18:11:08.991Z,20.33
2023-01-28T18:13:37.562Z,22.50
2023-01-28T18:16:05.551Z,21.73
2023-01-28T18:18:32.997Z,22.60
2023-01-28T18:21:04.159Z,21.97
2023-01-28T18:23:31.592Z,24.50
2023-01-28T18:26:00.217Z,22.60
2023-01-28T18:28:27.337Z,26.17
2023-01-28T18:30:54.286Z,26.43
2023-01-28T18:33:22.468Z,25.57
2023-01-28T18:35:49.373Z,27.17
2023-01-28T18:38:18.196Z,26.23
2023-01-28T18:40:45.941Z,27.43
2023-01-28T18:43:14.027Z,38.27
2023-01-28T18:45:42.265Z,34.77
2023-01-28T18:48:08.905Z,32.93
2023-01-28T18:50:35.690Z,31.90
2023-01-28T18:53:02.431Z,30.53
2023-01-28T18:55:29.112Z,32.87
2023-01-28T18:57:56.523Z,37.77
2023-01-28T19:00:23.302Z,37.53
2023-01-28T19:02:49.909Z,40.17
2023-01-28T19:05:17.528Z,40.27
2023-01-28T19:07:44.365Z,40.43
2023-01-28T19:10:11.036Z,42.13
2023-01-28T19:12:37.650Z,44.40
2023-01-28T19:15:04.562Z,40.33
2023-01-28T19:17:31.357Z,40.53
2023-01-28T19:19:58.101Z,46.87
2023-01-28T19:22:24.793Z,41.70
2023-01-28T19:24:51.366Z,40.40
2023-01-28T19:27:18.092Z,38.10
2023-01-28T19:29:44.686Z,40.23
2023-01-28T19:32:11.282Z,45.63
2023-01-28T19:34:37.910Z,45.77
2023-01-28T19:37:04.568Z,42.77
2023-01-28T19:39:32.174Z,40.80
2023-01-28T19:42:02.047Z,37.43
2023-01-28T19:44:29.255Z,38.87
2023-01-28T19:46:56.767Z,36.07
2023-01-28T19:49:23.395Z,32.93
2023-01-28T19:51:49.992Z,33.30
2023-01-28T19:54:16.713Z,32.60
2023-01-28T19:56:43.290Z,41.23
2023-01-28T19:59:10.077Z,35.43
2023-01-28T20:01:37.238Z,34.57
2023-01-28T20:04:04.791Z,33.83
2023-01-28T20:06:32.218Z,36.97
2023-01-28T20:09:01.763Z,32.30
2023-01-28T20:11:28.570Z,32.43
2023-01-28T20:13:55.651Z,31.70
2023-01-28T20:16:24.736Z,31.63
2023-01-28T20:18:53.156Z,30.23
2023-01-28T20:21:20.315Z,31.60
2023-01-28T20:23:51.958Z,30.50
2023-01-28T20:26:21.296Z,31.93
2023-01-28T20:28:48.865Z,30.93
2023-01-28T20:31:15.669Z,27.93
2023-01-28T20:33:42.545Z,28.10
2023-01-28T20:36:11.965Z,27.33
2023-01-28T20:38:41.182Z,27.17
2023-01-28T20:41:13.327Z,25.47
2023-01-28T20:43:41.371Z,27.13
2023-01-28T20:46:31.919Z,28.60
2023-01-28T20:49:00.464Z,26.17
2023-01-28T20:51:29.126Z,24.47
2023-01-28T20:53:55.977Z,25.87
2023-01-28T20:56:24.313Z,25.97
2023-01-28T20:58:55.759Z,24.83
2023-01-28T21:01:25.436Z,24.77
2023-01-28T21:03:52.331Z,25.57
2023-01-28T21:06:19.433Z,24.90
2023-01-28T21:08:46.513Z,24.63
2023-01-28T21:11:13.765Z,24.73
2023-01-28T21:13:40.723Z,24.37
2023-01-28T21:16:07.697Z,24.43
2023-01-28T21:18:34.342Z,24.67
2023-01-28T21:21:06.477Z,23.53
2023-01-28T21:23:33.298Z,23.20
2023-01-28T21:26:04.506Z,21.50
2023-01-28T21:28:31.444Z,23.43
2023-01-28T21:31:15.781Z,23.73
2023-01-28T21:33:42.770Z,21.63
2023-01-28T21:36:11.231Z,22.17
2023-01-28T21:38:38.244Z,22.03
2023-01-28T21:41:05.629Z,24.83
2023-01-28T21:43:32.619Z,23.53
2023-01-28T21:45:59.919Z,25.07
2023-01-28T21:48:27.015Z,24.87
2023-01-28T21:51:12.124Z,23.50
2023-01-28T21:53:40.234Z,22.97
2023-01-28T21:56:08.108Z,24.03
2023-01-28T21:58:54.942Z,24.73
2023-01-28T22:01:21.686Z,24.93
2023-01-28T22:03:49.023Z,25.87
2023-01-28T22:06:15.748Z,25.40
2023-01-28T22:08:42.441Z,22.20
2023-01-28T22:11:09.230Z,25.13
2023-01-28T22:13:40.176Z,23.53
2023-01-28T22:16:07.251Z,24.83
2023-01-28T22:18:33.961Z,24.40
2023-01-28T22:21:03.738Z,26.07
2023-01-28T22:23:30.478Z,28.63
2023-01-28T22:25:58.218Z,35.83
2023-01-28T22:28:25.869Z,36.77
2023-01-28T22:30:52.854Z,41.93
2023-01-28T22:33:21.142Z,40.43
2023-01-28T22:35:48.353Z,33.23
2023-01-28T22:38:15.024Z,31.40
2023-01-28T22:40:41.881Z,28.80
2023-01-28T22:43:08.500Z,34.27
2023-01-28T22:45:35.255Z,26.70
2023-01-28T22:48:01.901Z,28.37
2023-01-28T22:50:28.480Z,27.60
2023-01-28T22:52:55.044Z,25.07
2023-01-28T22:55:24.034Z,25.13
2023-01-28T22:57:52.076Z,25.07
2023-01-28T23:00:19.928Z,27.03
2023-01-28T23:02:46.594Z,25.20
2023-01-28T23:05:13.192Z,25.63
2023-01-28T23:07:39.847Z,28.07
2023-01-28T23:10:07.112Z,25.83
2023-01-28T23:12:33.699Z,27.03
2023-01-28T23:15:18.935Z,26.47
2023-01-28T23:18:04.188Z,25.80
2023-01-28T23:20:51.733Z,25.67
2023-01-28T23:23:36.968Z,24.20
2023-01-28T23:26:05.640Z,26.30
2023-01-28T23:28:33.425Z,23.47
2023-01-28T23:31:01.060Z,23.20
2023-01-28T23:33:27.791Z,25.60
2023-01-28T23:35:54.425Z,26.00
2023-01-28T23:38:21.141Z,25.33
2023-01-28T23:40:47.754Z,23.90
2023-01-28T23:43:14.506Z,25.47
2023-01-28T23:45:41.112Z,25.07
2023-01-28T23:48:07.868Z,26.00
2023-01-28T23:50:34.526Z,24.77
2023-01-28T23:53:01.310Z,23.23
2023-01-28T23:55:28.496Z,24.70
2023-01-28T23:57:55.195Z,24.87
